Aeroporto :
LOGIN :

Iscrizione | Disclaimer

   EN    FR    IT 

 










Sommario :    VFR   VFR Marginale   IFR   IFR Intensivo   IFR Molto Intensivo
Visibilità : 
Base nubi : 
>= 8 km
>= 3000ft
5 / 8 km
1000 / 3000 ft
1500m / 5 km
500 / 1000 ft
800 / 1500m
200 / 500 ft
< 800m
< 200 ft
Simboli :   Temporali  Nebbia  Neve Forte  Precipitazioni Forti  Vento > 20 kt
SIGMETs :   Varie  Temporali  Ghiacco  Turbolenza  Onda orograficha  Ceneri Vulcaniche






- Altitudine del aeroporto : 398 ft
- Codice IATA : JOE


EFJO - Joensuu

ULTIMO METAR :
  • 150420Z AUTO 15013KT 6000 -SHRA OVC005 00/00 Q1001

METARs OBSOLETI :
  • 150350Z AUTO 14013KT 9999 OVC005 00/00 Q1001
  • 150320Z AUTO 14012KT 8000 OVC005 00/00 Q1001
  • 150250Z AUTO 14013KT 7000 OVC005 00/M00 Q1001
  • 150220Z AUTO 13012KT 9999 OVC006 01/M00 Q1001
  • 150150Z AUTO 14012KT 9999 OVC007 01/M00 Q1002

Previsioni scadute.



MetMap, La meteo Aeronautica in un colpo d'occhio ! - Copyright ORBIFLY Dicembre 2007 - Disclaimer

ORBIFLY MET'MAP TEAM :

Programmazione e sviluppo : Alexandra Zaïnal
Concezione : Baudouin d'Aumeries
Aiuto per la programmazione : Marc-Olivier Méhu
Supporto tecnico e logistico : Manuel Goepfert
Aiuto per la traduzione : Arnaldo La Scala

Contatto : metmap@orbifly.com




FONTI E CREDITI :

   NOAA